Time;durP1;ratioP1;P1;durP2;ratioP2;P2;SDS_P1;SDS_P2;PMS_P1;PMS_P2;Temp;Humidity;BMP_temperature;BMP_pressure;BME280_temperature;BME280_humidity;BME280_pressure;Samples;Min_cycle;Max_cycle;Signal;HPM_P1;HPM_P2
2023/11/15 00:01:22;;;;;;;;;;;9.60;99.90;;;8.98;100.00;97386.09;5037757;28;1509;-69
2023/11/15 00:03:49;;;;;;;;;;;9.60;99.90;;;9.08;100.00;97410.75;5038641;28;1585;-69
2023/11/15 00:06:17;;;;;;;;;;;9.60;99.90;;;8.98;100.00;97411.97;5037815;28;1550;-68
2023/11/15 00:08:44;;;;;;;;;;;9.70;99.90;;;8.96;100.00;97417.25;5043128;28;1631;-69
2023/11/15 00:11:11;;;;;;;;;;;9.60;99.90;;;9.08;100.00;97434.03;5038993;28;1902;-68
2023/11/15 00:13:38;;;;;;;;;;;9.60;99.90;;;9.11;100.00;97428.72;5038918;28;1683;-68
2023/11/15 00:16:06;;;;;;;;;;;9.60;99.90;;;8.96;100.00;97414.66;5057283;28;1442;-68
2023/11/15 00:18:33;;;;;;;;;;;9.60;99.90;;;9.11;100.00;97422.72;5036124;28;1546;-68
2023/11/15 00:21:00;;;;;;;;;;;9.60;99.90;;;8.91;100.00;97431.25;5041419;28;1592;-69
2023/11/15 00:23:27;;;;;;;;;;;9.60;99.90;;;8.97;100.00;97444.81;5036909;28;1596;-68
2023/11/15 00:25:54;;;;;;;;;;;9.60;99.90;;;9.02;100.00;97452.38;5037921;28;1670;-69
2023/11/15 00:28:21;;;;;;;;;;;9.60;99.90;;;9.02;100.00;97447.22;5040926;28;1754;-69
2023/11/15 00:30:48;;;;;;;;;;;9.60;99.90;;;8.96;100.00;97450.91;5041211;28;1910;-69
2023/11/15 00:33:15;;;;;;;;;;;9.60;99.90;;;8.96;100.00;97440.53;5039564;28;1571;-69
2023/11/15 00:35:42;;;;;;;;;;;9.60;99.90;;;9.10;100.00;97447.78;5037601;28;1754;-68
2023/11/15 00:38:11;;;;;;;;;;;9.60;99.90;;;9.00;100.00;97454.19;5039401;28;1655;-69
2023/11/15 00:40:38;;;;;;;;;;;9.60;99.90;;;8.97;100.00;97454.31;5040475;28;1931;-69
2023/11/15 00:43:04;;;;;;;;;;;9.60;99.90;;;8.99;100.00;97458.53;5037901;28;1836;-68
2023/11/15 00:45:31;;;;;;;;;;;9.60;99.90;;;9.10;100.00;97465.03;5039069;28;1562;-69
2023/11/15 00:47:58;;;;;;;;;;;9.50;99.90;;;9.10;100.00;97455.53;5042120;28;1541;-69
2023/11/15 00:50:25;;;;;;;;;;;9.50;99.90;;;8.93;100.00;97456.16;5035708;28;1899;-69
2023/11/15 00:52:53;;;;;;;;;;;9.60;99.90;;;9.04;100.00;97465.28;5038219;28;1590;-68
2023/11/15 00:55:19;;;;;;;;;;;9.60;99.90;;;9.08;100.00;97459.94;5040667;28;1771;-68
2023/11/15 00:57:46;;;;;;;;;;;9.60;99.90;;;8.92;100.00;97458.84;5039577;28;1658;-68
2023/11/15 01:00:27;;;;;;;;;;;9.60;99.90;;;8.89;100.00;97485.66;5040414;28;1680;-69
2023/11/15 01:02:57;;;;;;;;;;;9.50;99.90;;;8.84;100.00;97487.56;5036952;28;1490;-69
2023/11/15 01:05:24;;;;;;;;;;;9.50;99.90;;;8.79;100.00;97479.16;5043630;28;1514;-69
2023/11/15 01:07:51;;;;;;;;;;;9.50;99.90;;;8.81;100.00;97489.44;5038100;28;1644;-69
2023/11/15 01:10:19;;;;;;;;;;;9.40;99.90;;;8.88;100.00;97509.88;5039595;28;1989;-68
2023/11/15 01:12:46;;;;;;;;;;;9.40;99.90;;;8.83;100.00;97521.31;5040370;28;1742;-69
2023/11/15 01:15:13;;;;;;;;;;;9.40;99.90;;;8.82;100.00;97506.66;5040717;28;1992;-69
2023/11/15 01:17:41;;;;;;;;;;;9.40;99.90;;;8.78;100.00;97521.44;5039972;28;1422;-69
2023/11/15 01:20:08;;;;;;;;;;;9.30;99.90;;;8.78;100.00;97508.50;5037182;28;1555;-69
2023/11/15 01:22:35;;;;;;;;;;;9.30;99.90;;;8.72;100.00;97509.56;5037786;28;1600;-69
2023/11/15 01:25:03;;;;;;;;;;;9.30;99.90;;;8.66;100.00;97529.66;5040671;28;1670;-70
2023/11/15 01:27:30;;;;;;;;;;;9.30;99.90;;;8.66;100.00;97533.06;5037800;28;1603;-69
2023/11/15 01:29:57;;;;;;;;;;;9.20;99.90;;;8.62;100.00;97518.59;5039857;28;1985;-69
2023/11/15 01:32:24;;;;;;;;;;;9.30;99.90;;;8.57;100.00;97523.88;5038182;28;1861;-69
2023/11/15 01:34:51;;;;;;;;;;;9.20;99.90;;;8.64;100.00;97526.28;5040405;28;1554;-69
2023/11/15 01:37:18;;;;;;;;;;;9.20;99.90;;;8.66;100.00;97563.28;5043087;28;1544;-69
2023/11/15 01:39:45;;;;;;;;;;;9.20;99.90;;;8.56;100.00;97552.44;5040546;28;1472;-69
2023/11/15 01:42:12;;;;;;;;;;;9.30;99.90;;;8.62;100.00;97535.81;5038806;28;1564;-69
2023/11/15 01:44:39;;;;;;;;;;;9.30;99.90;;;8.54;100.00;97538.69;5036256;28;1673;-69
2023/11/15 01:47:07;;;;;;;;;;;9.20;99.90;;;8.51;100.00;97554.34;5037936;28;1666;-70
2023/11/15 01:49:34;;;;;;;;;;;9.20;99.90;;;8.54;100.00;97561.97;5036787;28;1587;-69
2023/11/15 01:52:01;;;;;;;;;;;9.10;99.90;;;8.58;100.00;97555.81;5033499;28;1981;-69
2023/11/15 01:54:31;;;;;;;;;;;9.10;99.90;;;8.55;100.00;97556.75;5036475;28;1611;-70
2023/11/15 01:56:58;;;;;;;;;;;9.20;99.90;;;8.57;100.00;97567.03;5037460;28;1604;-69
2023/11/15 01:59:25;;;;;;;;;;;9.20;99.90;;;8.61;100.00;97575.56;5035432;28;1657;-70
2023/11/15 02:01:52;;;;;;;;;;;9.10;99.90;;;8.61;100.00;97591.06;5038459;28;1633;-70
2023/11/15 02:04:19;;;;;;;;;;;9.20;99.90;;;8.61;100.00;97568.63;5033339;28;1481;-69
2023/11/15 02:06:46;;;;;;;;;;;9.20;99.90;;;8.59;100.00;97566.09;5037936;28;1550;-69
2023/11/15 02:09:13;;;;;;;;;;;9.20;99.90;;;8.59;100.00;97584.19;5035975;28;1546;-71
2023/11/15 02:11:40;;;;;;;;;;;9.10;99.90;;;8.58;100.00;97581.69;5035412;28;1910;-69
2023/11/15 03:50:32;;;;;;;;;;;9.30;99.90;;;8.61;100.00;97648.84;5043977;28;1903;-68
2023/11/15 03:53:00;;;;;;;;;;;9.30;99.90;;;8.64;100.00;97673.75;5038335;28;1414;-69
2023/11/15 03:55:26;;;;;;;;;;;9.30;99.90;;;8.73;100.00;97673.44;5040077;28;1472;-69
2023/11/15 03:57:53;;;;;;;;;;;9.20;99.90;;;8.75;100.00;97669.91;5039961;28;1617;-68
2023/11/15 04:00:20;;;;;;;;;;;9.30;99.90;;;8.71;100.00;97677.81;5036794;28;1627;-69
2023/11/15 04:02:47;;;;;;;;;;;9.20;99.90;;;8.62;100.00;97688.47;5042397;28;1585;-69
2023/11/15 04:05:16;;;;;;;;;;;9.30;99.90;;;8.65;100.00;97689.25;5040528;28;1534;-68
2023/11/15 04:07:44;;;;;;;;;;;9.20;99.90;;;8.60;100.00;97673.03;5040099;28;1593;-69
2023/11/15 04:10:11;;;;;;;;;;;9.20;99.90;;;8.61;100.00;97684.22;5037437;28;1910;-69
2023/11/15 04:12:37;;;;;;;;;;;9.20;99.90;;;8.58;100.00;97692.94;5042175;28;1533;-71
2023/11/15 04:15:06;;;;;;;;;;;9.20;99.90;;;8.50;100.00;97680.22;5043812;28;1595;-68
2023/11/15 04:17:33;;;;;;;;;;;9.20;99.90;;;8.62;100.00;97685.91;5041510;28;1556;-68
2023/11/15 04:20:00;;;;;;;;;;;9.20;99.90;;;8.44;100.00;97685.63;5041632;28;1547;-69
2023/11/15 04:22:27;;;;;;;;;;;9.20;99.90;;;8.47;100.00;97701.03;5035945;28;1601;-68
2023/11/15 04:24:56;;;;;;;;;;;9.20;99.90;;;8.53;100.00;97700.84;5037216;28;1624;-70
2023/11/15 04:27:23;;;;;;;;;;;9.20;99.90;;;8.58;100.00;97703.28;5041604;28;1398;-69
2023/11/15 04:29:50;;;;;;;;;;;9.20;99.90;;;8.69;100.00;97711.53;5038819;28;1798;-70
2023/11/15 04:32:16;;;;;;;;;;;9.20;99.90;;;8.68;100.00;97715.00;5040484;28;1971;-69
2023/11/15 04:34:43;;;;;;;;;;;9.20;99.90;;;8.55;100.00;97722.34;5038137;28;1601;-69
2023/11/15 04:37:10;;;;;;;;;;;9.30;99.90;;;8.82;100.00;97713.72;5041073;28;1549;-69
2023/11/15 04:39:37;;;;;;;;;;;9.20;99.90;;;8.83;100.00;97713.66;5036828;28;1530;-68
2023/11/15 04:42:04;;;;;;;;;;;9.30;99.90;;;8.77;100.00;97725.06;5038673;28;1604;-69
2023/11/15 04:44:31;;;;;;;;;;;9.30;99.90;;;8.70;100.00;97720.97;5035467;28;1547;-69
2023/11/15 04:46:58;;;;;;;;;;;9.20;99.90;;;8.77;100.00;97717.28;5042539;28;1432;-69
2023/11/15 04:49:25;;;;;;;;;;;9.20;99.90;;;8.72;100.00;97711.44;5040910;28;1534;-69
2023/11/15 04:51:51;;;;;;;;;;;9.20;99.90;;;8.69;100.00;97718.44;5038263;28;1985;-67
2023/11/15 04:54:18;;;;;;;;;;;9.20;99.90;;;8.75;100.00;97723.41;5039355;28;1538;-69
2023/11/15 04:56:45;;;;;;;;;;;9.20;99.90;;;8.82;100.00;97732.66;5042229;28;1522;-67
2023/11/15 04:59:12;;;;;;;;;;;9.20;99.90;;;8.68;100.00;97730.53;5038153;28;1943;-68
2023/11/15 05:01:41;;;;;;;;;;;9.20;99.90;;;8.68;100.00;97732.28;5037728;28;1723;-68
2023/11/15 05:04:08;;;;;;;;;;;9.20;99.90;;;8.63;100.00;97731.59;5042267;28;1650;-68
2023/11/15 05:06:35;;;;;;;;;;;9.10;99.90;;;8.45;100.00;97731.28;5040172;28;1664;-69
2023/11/15 05:09:03;;;;;;;;;;;9.20;99.90;;;8.41;100.00;97739.19;5037590;28;1541;-67
2023/11/15 05:11:30;;;;;;;;;;;9.10;99.90;;;8.44;100.00;97739.06;5035230;28;1980;-67
2023/11/15 05:13:56;;;;;;;;;;;9.10;99.90;;;8.51;100.00;97735.41;5038052;28;1572;-67
2023/11/15 05:16:23;;;;;;;;;;;9.10;99.90;;;8.40;100.00;97737.47;5037749;28;1603;-67
2023/11/15 05:18:50;;;;;;;;;;;9.10;99.90;;;8.48;100.00;97748.44;5039250;28;1547;-67
2023/11/15 05:21:17;;;;;;;;;;;9.20;99.90;;;8.47;100.00;97755.34;5040810;28;1940;-67
2023/11/15 05:23:44;;;;;;;;;;;9.20;99.90;;;8.49;100.00;97760.50;5038770;28;1648;-68
2023/11/15 05:26:12;;;;;;;;;;;9.20;99.90;;;8.63;100.00;97766.06;5030948;28;1551;-67
2023/11/15 05:28:39;;;;;;;;;;;9.20;99.90;;;8.55;100.00;97757.69;5038675;28;1599;-67
2023/11/15 05:31:05;;;;;;;;;;;9.20;99.90;;;8.53;100.00;97765.53;5033947;28;1910;-69
2023/11/15 05:33:32;;;;;;;;;;;9.20;99.90;;;8.48;100.00;97771.72;5035945;28;1557;-67
2023/11/15 05:35:59;;;;;;;;;;;9.20;99.90;;;8.50;100.00;97772.53;5037579;28;1638;-68
2023/11/15 05:38:26;;;;;;;;;;;9.20;99.90;;;8.66;100.00;97778.91;5035336;28;1547;-68
2023/11/15 05:40:53;;;;;;;;;;;9.20;99.90;;;8.63;100.00;97766.06;5042673;28;1493;-67
2023/11/15 05:43:20;;;;;;;;;;;9.30;99.90;;;8.64;100.00;97772.94;5040041;28;1534;-67
2023/11/15 05:45:47;;;;;;;;;;;9.20;99.90;;;8.49;100.00;97768.25;5039194;28;1648;-67
2023/11/15 05:48:14;;;;;;;;;;;9.30;99.90;;;8.68;100.00;97773.69;5040185;28;1607;-67
2023/11/15 05:50:41;;;;;;;;;;;9.30;99.90;;;8.54;100.00;97780.13;5039111;28;1906;-67
2023/11/15 05:53:09;;;;;;;;;;;9.30;99.90;;;8.60;100.00;97789.47;5038700;28;1450;-67
2023/11/15 05:55:35;;;;;;;;;;;9.30;99.90;;;8.59;100.00;97800.69;5039069;28;1578;-67
2023/11/15 05:58:04;;;;;;;;;;;9.30;99.90;;;8.65;100.00;97805.69;5035706;28;1660;-67
2023/11/15 06:00:31;;;;;;;;;;;9.20;99.90;;;8.61;100.00;97808.41;5036560;28;1549;-67
2023/11/15 06:02:59;;;;;;;;;;;9.30;99.90;;;8.74;100.00;97814.91;5040375;28;1559;-67
2023/11/15 06:05:26;;;;;;;;;;;9.20;99.90;;;8.74;100.00;97801.97;5038703;28;1522;-68
2023/11/15 06:07:53;;;;;;;;;;;9.20;99.90;;;8.53;100.00;97804.34;5040630;28;1495;-68
2023/11/15 06:10:20;;;;;;;;;;;9.20;99.90;;;8.59;100.00;97817.06;5033027;28;1572;-69
2023/11/15 06:12:47;;;;;;;;;;;9.20;99.90;;;8.73;100.00;97808.88;5041223;28;2007;-67
2023/11/15 06:15:14;;;;;;;;;;;9.20;99.90;;;8.63;100.00;97820.41;5041530;28;1398;-67
2023/11/15 06:17:41;;;;;;;;;;;9.20;99.90;;;8.64;100.00;97824.69;5039720;28;1488;-67
2023/11/15 06:20:09;;;;;;;;;;;9.30;99.90;;;8.76;100.00;97820.88;5041598;28;1343;-67
2023/11/15 06:22:38;;;;;;;;;;;9.30;99.90;;;8.64;100.00;97835.03;5039690;28;1699;-67
2023/11/15 06:25:08;;;;;;;;;;;9.30;99.90;;;8.77;100.00;97814.81;5042773;28;1568;-68
2023/11/15 06:27:37;;;;;;;;;;;9.30;99.90;;;8.85;100.00;97823.19;5040560;28;1404;-67
2023/11/15 06:30:08;;;;;;;;;;;9.30;99.90;;;8.75;100.00;97814.84;5043695;28;1290;-67
2023/11/15 06:32:36;;;;;;;;;;;9.30;99.90;;;8.70;100.00;97821.06;5042076;28;1894;-67
2023/11/15 06:35:03;;;;;;;;;;;9.30;99.90;;;8.66;100.00;97819.47;5044449;28;1249;-67
2023/11/15 06:37:33;;;;;;;;;;;9.30;99.90;;;8.63;100.00;97827.34;5044360;28;1563;-67
2023/11/15 06:40:07;;;;;;;;;;;9.30;99.90;;;8.67;100.00;97832.38;5043907;28;1258;-67
2023/11/15 06:42:35;;;;;;;;;;;9.30;99.90;;;8.64;100.00;97840.19;5042227;28;1941;-67
2023/11/15 06:45:04;;;;;;;;;;;9.30;99.90;;;8.73;100.00;97850.28;5045488;28;1260;-67
2023/11/15 06:47:31;;;;;;;;;;;9.20;99.90;;;8.65;100.00;97854.00;5043035;28;1236;-67
2023/11/15 06:49:58;;;;;;;;;;;9.20;99.90;;;8.54;100.00;97850.00;5047325;28;1189;-67
2023/11/15 06:52:28;;;;;;;;;;;9.30;99.90;;;8.54;100.00;97854.31;5043551;28;1882;-67
2023/11/15 06:54:55;;;;;;;;;;;9.20;99.90;;;8.61;100.00;97862.75;5047642;28;1468;-67
2023/11/15 06:57:23;;;;;;;;;;;9.20;99.90;;;8.61;100.00;97860.16;5041123;28;1548;-67
2023/11/15 06:59:50;;;;;;;;;;;9.20;99.90;;;8.54;100.00;97857.75;5042947;28;1736;-67
2023/11/15 07:02:17;;;;;;;;;;;9.20;99.90;;;8.50;100.00;97866.50;5044726;28;1468;-67
2023/11/15 07:04:43;;;;;;;;;;;9.20;99.90;;;8.48;100.00;97852.75;5043205;28;1250;-67
2023/11/15 07:07:11;;;;;;;;;;;9.20;99.90;;;8.53;100.00;97853.47;5040501;28;1536;-67
2023/11/15 07:09:38;;;;;;;;;;;9.20;99.90;;;8.59;100.00;97862.78;5042733;28;1555;-68
2023/11/15 07:12:06;;;;;;;;;;;9.20;99.90;;;8.52;100.00;97866.47;5047040;28;1991;-67
2023/11/15 07:14:34;;;;;;;;;;;9.20;99.90;;;8.65;100.00;97859.19;5039530;28;1478;-68
2023/11/15 07:17:01;;;;;;;;;;;9.20;99.90;;;8.77;100.00;97869.16;5044069;28;1496;-67
2023/11/15 07:19:28;;;;;;;;;;;9.20;99.90;;;8.74;100.00;97867.50;5041552;28;1651;-68
2023/11/15 07:21:55;;;;;;;;;;;9.20;99.90;;;8.65;100.00;97870.38;5036911;28;1346;-68
2023/11/15 07:24:23;;;;;;;;;;;9.30;99.90;;;8.67;100.00;97876.34;5043218;28;1541;-67
2023/11/15 07:26:49;;;;;;;;;;;9.30;99.90;;;8.86;100.00;97880.97;5038998;28;1284;-68
2023/11/15 07:29:20;;;;;;;;;;;9.30;99.90;;;8.86;100.00;97879.22;5043584;28;1425;-69
2023/11/15 07:31:53;;;;;;;;;;;9.30;99.90;;;8.94;100.00;97878.97;5044915;28;2017;-68
2023/11/15 07:34:24;;;;;;;;;;;9.30;99.90;;;8.96;100.00;97874.59;5044227;28;1493;-68
2023/11/15 07:36:53;;;;;;;;;;;9.30;99.90;;;8.96;100.00;97877.19;5041284;28;1377;-68
2023/11/15 07:39:20;;;;;;;;;;;9.40;99.90;;;8.78;100.00;97878.59;5045041;28;1315;-67
2023/11/15 07:41:47;;;;;;;;;;;9.40;99.90;;;8.87;100.00;97893.00;5045344;28;1389;-67
2023/11/15 07:44:17;;;;;;;;;;;9.30;99.90;;;8.78;100.00;97886.38;5042074;28;1094;-68
2023/11/15 07:46:46;;;;;;;;;;;9.30;99.90;;;8.84;100.00;97893.94;5043286;28;1517;-67
2023/11/15 07:49:18;;;;;;;;;;;9.30;99.90;;;8.90;100.00;97898.13;5054392;28;1021;-68
2023/11/15 07:51:45;;;;;;;;;;;9.30;99.90;;;8.87;100.00;97906.81;5043283;28;1902;-67
2023/11/15 07:54:13;;;;;;;;;;;9.40;99.90;;;8.76;100.00;97907.13;5038324;28;812;-68
2023/11/15 07:56:41;;;;;;;;;;;9.40;99.90;;;8.84;100.00;97904.31;5038778;28;1383;-68
2023/11/15 07:59:08;;;;;;;;;;;9.30;99.90;;;8.59;100.00;97910.22;5041399;28;1971;-67
2023/11/15 08:01:37;;;;;;;;;;;9.20;99.90;;;8.65;100.00;97909.19;5038026;28;1410;-68
2023/11/15 08:04:06;;;;;;;;;;;9.20;99.90;;;8.72;100.00;97926.22;5042836;28;1278;-69
2023/11/15 08:06:35;;;;;;;;;;;9.20;99.90;;;8.63;100.00;97925.66;5039012;28;1376;-69
2023/11/15 08:09:05;;;;;;;;;;;9.20;99.90;;;8.58;100.00;97903.34;5036892;28;1893;-68
2023/11/15 08:11:35;;;;;;;;;;;9.10;99.90;;;8.64;100.00;97923.00;5039217;28;1902;-68
2023/11/15 08:14:06;;;;;;;;;;;9.20;99.90;;;8.69;100.00;97930.63;5041680;28;1089;-68
2023/11/15 08:16:33;;;;;;;;;;;9.20;99.90;;;8.76;100.00;97933.00;5039858;28;1359;-68
2023/11/15 08:19:01;;;;;;;;;;;9.20;99.90;;;8.71;100.00;97910.75;5039322;28;1111;-68
2023/11/15 08:21:29;;;;;;;;;;;9.30;99.90;;;8.80;100.00;97915.63;5039436;28;1383;-68
2023/11/15 08:23:56;;;;;;;;;;;9.30;99.90;;;8.78;100.00;97915.72;5035817;28;1647;-70
2023/11/15 08:26:23;;;;;;;;;;;9.30;99.90;;;8.84;100.00;97925.00;5039586;28;1434;-68
2023/11/15 08:28:50;;;;;;;;;;;9.30;99.90;;;8.83;100.00;97915.56;5041192;28;1413;-68
2023/11/15 08:31:23;;;;;;;;;;;9.40;99.90;;;9.20;100.00;97942.91;5042118;28;1919;-68
2023/11/15 08:33:49;;;;;;;;;;;9.40;99.90;;;9.23;100.00;97929.03;5039731;28;1326;-67
2023/11/15 08:36:16;;;;;;;;;;;9.60;99.90;;;9.32;100.00;97947.69;5038750;28;1165;-68
2023/11/15 08:38:44;;;;;;;;;;;9.70;99.90;;;9.33;100.00;97946.81;5040932;28;1377;-68
2023/11/15 08:41:16;;;;;;;;;;;9.80;99.90;;;9.53;100.00;97942.72;5042310;28;1585;-68
2023/11/15 08:43:43;;;;;;;;;;;9.90;99.90;;;9.42;100.00;97938.75;5048170;28;1230;-68
2023/11/15 08:46:10;;;;;;;;;;;9.90;99.90;;;9.52;100.00;97939.28;5043455;28;1418;-68
2023/11/15 08:48:37;;;;;;;;;;;10.00;99.90;;;9.32;100.00;97933.91;5040838;28;1438;-68
2023/11/15 08:51:04;;;;;;;;;;;9.90;99.90;;;9.12;100.00;97939.69;5038599;28;1311;-68
2023/11/15 08:53:31;;;;;;;;;;;9.80;99.90;;;9.08;100.00;97933.78;5040951;28;1981;-68
2023/11/15 08:55:58;;;;;;;;;;;9.70;99.90;;;9.03;100.00;97947.75;5041458;28;1321;-68
2023/11/15 08:58:27;;;;;;;;;;;9.60;99.90;;;9.02;100.00;97944.31;5039571;28;2290;-68
2023/11/15 09:01:01;;;;;;;;;;;9.60;99.90;;;9.11;100.00;97936.28;5038213;28;1472;-68
2023/11/15 09:03:28;;;;;;;;;;;9.60;99.90;;;8.89;100.00;97951.59;5045460;28;1552;-68
2023/11/15 09:05:55;;;;;;;;;;;9.50;99.90;;;8.96;100.00;97945.38;5042806;28;1195;-68
2023/11/15 09:08:22;;;;;;;;;;;9.60;99.90;;;8.93;100.00;97966.16;5040514;28;1375;-68
2023/11/15 09:10:52;;;;;;;;;;;9.60;99.90;;;9.00;100.00;97977.19;5040870;28;1449;-68
2023/11/15 09:13:19;;;;;;;;;;;9.50;99.90;;;8.95;100.00;97974.72;5043401;28;1926;-68
2023/11/15 09:15:52;;;;;;;;;;;9.60;99.90;;;9.28;100.00;97972.00;5039750;28;1232;-68
2023/11/15 09:18:23;;;;;;;;;;;9.60;99.90;;;9.20;100.00;97971.41;5038061;28;1498;-68
2023/11/15 09:20:52;;;;;;;;;;;9.70;99.90;;;9.28;100.00;97958.22;5037889;28;2082;-68
2023/11/15 09:23:20;;;;;;;;;;;9.80;99.90;;;9.41;100.00;97973.31;5038031;28;1564;-68
2023/11/15 09:25:58;;;;;;;;;;;9.90;99.90;;;9.30;100.00;97962.44;5039063;28;1027;-68
2023/11/15 09:28:25;;;;;;;;;;;9.90;99.90;;;9.16;100.00;97962.03;5039741;28;1675;-68
2023/11/15 09:30:52;;;;;;;;;;;9.90;99.90;;;9.24;100.00;97964.38;5039630;28;1790;-68
2023/11/15 09:33:20;;;;;;;;;;;9.80;99.90;;;9.28;100.00;97965.97;5038265;28;1907;-68
2023/11/15 09:35:48;;;;;;;;;;;9.90;99.90;;;9.28;100.00;97958.22;5039612;28;1482;-68
2023/11/15 09:38:26;;;;;;;;;;;9.80;99.90;;;9.35;100.00;97954.53;5041092;28;1902;-68
2023/11/15 09:40:53;;;;;;;;;;;9.90;99.90;;;9.48;100.00;97955.84;5039328;28;1531;-68
2023/11/15 09:43:20;;;;;;;;;;;9.90;99.90;;;9.52;100.00;97962.63;5035223;28;1569;-67
2023/11/15 09:45:47;;;;;;;;;;;9.90;99.90;;;9.80;100.00;97953.94;5038034;28;1454;-67
2023/11/15 09:48:14;;;;;;;;;;;10.00;99.90;;;9.66;100.00;97962.16;5035478;28;1503;-67
2023/11/15 09:50:41;;;;;;;;;;;10.00;99.90;;;9.66;100.00;97969.09;5043830;28;1813;-68
2023/11/15 09:53:09;;;;;;;;;;;10.00;99.90;;;9.56;100.00;97966.81;5038234;28;2028;-67
2023/11/15 09:55:36;;;;;;;;;;;10.00;99.90;;;9.43;100.00;97979.28;5038738;28;1703;-67
2023/11/15 09:58:06;;;;;;;;;;;10.00;99.90;;;9.58;100.00;97974.53;5040117;28;1708;-68
2023/11/15 10:00:32;;;;;;;;;;;9.90;99.90;;;9.53;100.00;97960.88;5038989;28;1836;-67
2023/11/15 10:03:00;;;;;;;;;;;10.00;99.90;;;9.55;100.00;97952.13;5040944;28;1479;-68
2023/11/15 10:05:27;;;;;;;;;;;10.10;99.90;;;9.47;100.00;97956.75;5038902;28;1862;-68
2023/11/15 10:08:17;;;;;;;;;;;10.00;99.90;;;9.23;100.00;97967.88;5040793;28;1435;-68
2023/11/15 10:10:45;;;;;;;;;;;9.90;99.90;;;9.15;100.00;97974.13;5033401;28;1554;-69
2023/11/15 10:13:14;;;;;;;;;;;9.80;99.90;;;9.09;100.00;97963.13;5039008;28;2047;-68
2023/11/15 10:15:43;;;;;;;;;;;9.70;99.90;;;9.05;100.00;97980.47;5037830;28;1331;-69
2023/11/15 10:18:14;;;;;;;;;;;9.70;99.90;;;9.05;100.00;97977.88;5039323;28;1374;-68
2023/11/15 10:20:42;;;;;;;;;;;9.60;99.90;;;8.93;100.00;97975.66;5039466;28;1471;-68
2023/11/15 10:23:13;;;;;;;;;;;9.60;99.90;;;8.87;100.00;97971.53;5036142;28;1580;-68
2023/11/15 10:25:47;;;;;;;;;;;9.50;99.90;;;8.73;100.00;97984.00;5038160;28;1485;-69
2023/11/15 10:28:15;;;;;;;;;;;9.40;99.90;;;8.84;100.00;97991.47;5038424;28;1632;-69
2023/11/15 10:30:42;;;;;;;;;;;9.40;99.90;;;8.88;100.00;97999.09;5038653;28;1723;-68
2023/11/15 10:33:10;;;;;;;;;;;9.40;99.90;;;8.94;100.00;98013.59;5042365;28;1983;-68
2023/11/15 10:35:38;;;;;;;;;;;9.40;99.90;;;8.96;100.00;98002.34;5037552;28;1696;-68
2023/11/15 10:38:14;;;;;;;;;;;9.50;99.90;;;9.05;100.00;97992.56;5038332;28;1427;-69
2023/11/15 10:40:41;;;;;;;;;;;9.60;99.90;;;9.14;100.00;98016.44;5037635;28;1641;-68
2023/11/15 10:43:11;;;;;;;;;;;9.60;99.90;;;9.12;100.00;98010.50;5039294;28;1724;-68
2023/11/15 10:45:39;;;;;;;;;;;9.60;99.90;;;9.09;100.00;98007.97;5026535;28;1617;-68
2023/11/15 10:48:11;;;;;;;;;;;9.70;99.90;;;9.15;100.00;98017.31;5038126;28;1648;-68
2023/11/15 10:50:46;;;;;;;;;;;9.70;99.90;;;8.96;100.00;98009.22;5035968;28;1414;-68
2023/11/15 10:53:14;;;;;;;;;;;9.60;99.90;;;9.03;100.00;98008.16;5038990;28;1906;-69
2023/11/15 10:55:41;;;;;;;;;;;9.50;99.90;;;8.91;100.00;98014.53;5040373;28;1653;-69
2023/11/15 10:58:11;;;;;;;;;;;9.50;99.90;;;9.00;100.00;98011.69;5040288;28;1629;-68
2023/11/15 11:00:43;;;;;;;;;;;9.50;99.90;;;9.06;100.00;98010.66;5042488;28;1656;-68
2023/11/15 11:03:13;;;;;;;;;;;9.40;99.90;;;9.08;100.00;98002.88;5040431;28;1525;-68
2023/11/15 11:05:59;;;;;;;;;;;9.50;99.90;;;9.03;100.00;98002.13;5040032;28;1589;-68
2023/11/15 11:08:28;;;;;;;;;;;9.60;99.90;;;9.08;100.00;98008.88;5033481;28;1524;-68
2023/11/15 11:11:11;;;;;;;;;;;9.50;99.90;;;8.93;100.00;97992.03;5040346;28;1526;-68
2023/11/15 11:13:41;;;;;;;;;;;9.50;99.90;;;9.08;100.00;97997.69;5040880;28;1997;-67
2023/11/15 11:16:29;;;;;;;;;;;9.60;99.90;;;9.22;100.00;97987.75;5041837;28;1274;-68
2023/11/15 11:19:11;;;;;;;;;;;9.60;99.90;;;9.12;100.00;97997.53;5045603;28;1997;-67
2023/11/15 11:22:07;;;;;;;;;;;9.60;99.90;;;9.36;100.00;97992.50;5042215;28;1691;-68
2023/11/15 11:24:36;;;;;;;;;;;9.70;99.90;;;9.39;100.00;98003.59;5038925;28;1883;-67
2023/11/15 11:27:09;;;;;;;;;;;9.80;99.90;;;9.43;100.00;98004.38;5023646;28;1493;-67
2023/11/15 11:29:55;;;;;;;;;;;9.80;99.90;;;9.57;100.00;98001.34;5042117;28;1527;-67
2023/11/15 11:32:27;;;;;;;;;;;9.90;99.90;;;9.64;100.00;98000.25;5044566;28;1918;-67
2023/11/15 11:37:47;;;;;;;;;;;9.90;99.90;;;9.62;100.00;97995.13;5039085;28;1703;-68
2023/11/15 11:40:15;;;;;;;;;;;10.00;99.90;;;9.78;100.00;98004.97;5043145;28;1635;-68
2023/11/15 11:42:43;;;;;;;;;;;10.00;99.90;;;9.60;100.00;97998.63;5042801;28;1469;-67
2023/11/15 11:45:12;;;;;;;;;;;10.00;99.90;;;9.73;100.00;97986.97;5041962;28;1602;-67
2023/11/15 11:47:41;;;;;;;;;;;10.00;99.90;;;9.59;100.00;98010.75;5041877;28;1631;-67
2023/11/15 11:50:09;;;;;;;;;;;10.00;99.90;;;9.75;100.00;97997.31;5040819;28;1518;-67
2023/11/15 11:52:38;;;;;;;;;;;10.00;99.90;;;9.93;100.00;97991.53;5041172;28;2017;-67
2023/11/15 11:55:06;;;;;;;;;;;10.10;99.90;;;10.04;100.00;97993.75;5039858;28;1415;-67
2023/11/15 11:57:34;;;;;;;;;;;10.10;99.90;;;10.02;100.00;97974.81;5028393;28;1821;-67
2023/11/15 12:00:11;;;;;;;;;;;10.20;99.90;;;10.12;100.00;97977.94;5042758;28;1692;-67
2023/11/15 12:02:45;;;;;;;;;;;10.10;99.90;;;10.08;100.00;97966.84;5043054;28;1408;-67
2023/11/15 12:05:13;;;;;;;;;;;10.10;99.90;;;10.00;100.00;97955.84;5040592;28;1465;-67
2023/11/15 12:07:44;;;;;;;;;;;10.10;99.90;;;9.98;100.00;97935.16;5039195;28;1508;-69
2023/11/15 12:10:15;;;;;;;;;;;10.20;99.90;;;10.07;100.00;97953.91;5040559;28;1443;-67
2023/11/15 12:12:57;;;;;;;;;;;10.20;99.90;;;10.60;100.00;97922.63;5040096;28;1898;-68
2023/11/15 12:15:27;;;;;;;;;;;10.30;99.90;;;10.52;100.00;97899.56;5038341;28;1559;-68
2023/11/15 12:17:56;;;;;;;;;;;10.50;99.90;;;10.78;100.00;97906.34;5039242;28;1616;-68
2023/11/15 12:20:49;;;;;;;;;;;10.70;99.90;;;10.82;100.00;97900.13;5042521;28;1624;-68
2023/11/15 12:23:17;;;;;;;;;;;10.70;99.90;;;10.42;100.00;97893.88;5039552;28;1646;-67
2023/11/15 12:25:54;;;;;;;;;;;10.60;99.90;;;10.71;100.00;97885.88;5039912;28;1584;-67
2023/11/15 12:28:23;;;;;;;;;;;10.70;99.90;;;10.62;100.00;97887.91;5040406;28;1629;-68
2023/11/15 12:30:51;;;;;;;;;;;10.60;99.90;;;10.49;100.00;97885.81;5040913;28;1668;-68
2023/11/15 12:33:19;;;;;;;;;;;10.50;99.90;;;10.30;100.00;97886.50;5024797;28;1898;-68
2023/11/15 12:35:46;;;;;;;;;;;10.60;99.90;;;10.41;100.00;97886.13;5040085;28;1405;-68
2023/11/15 12:38:14;;;;;;;;;;;10.60;99.90;;;10.52;100.00;97867.56;5041862;28;1581;-67
2023/11/15 12:40:42;;;;;;;;;;;10.70;99.90;;;10.49;100.00;97862.47;5040739;28;1559;-68
2023/11/15 12:43:19;;;;;;;;;;;10.60;99.90;;;10.51;100.00;97874.47;5040114;28;1383;-68
2023/11/15 12:45:47;;;;;;;;;;;10.60;99.90;;;10.57;100.00;97897.63;5040937;28;1434;-68
2023/11/15 12:48:14;;;;;;;;;;;10.60;99.90;;;10.32;100.00;97869.13;5041791;28;1355;-67
2023/11/15 12:50:43;;;;;;;;;;;10.60;99.90;;;10.35;100.00;97873.38;5038452;28;1676;-68
2023/11/15 12:53:13;;;;;;;;;;;10.60;99.90;;;10.24;100.00;97877.19;5052329;28;1902;-68
2023/11/15 12:55:45;;;;;;;;;;;10.50;99.90;;;10.18;100.00;97872.22;5039271;28;1355;-67
2023/11/15 12:58:13;;;;;;;;;;;10.50;99.90;;;10.15;100.00;97887.03;5038979;28;1612;-68
2023/11/15 13:00:41;;;;;;;;;;;10.50;99.90;;;9.92;100.00;97891.31;5042287;28;1677;-68
2023/11/15 13:03:18;;;;;;;;;;;10.50;99.90;;;9.77;100.00;97920.34;5026176;28;1457;-67
2023/11/15 13:05:45;;;;;;;;;;;10.30;99.90;;;9.60;100.00;97907.94;5039983;28;1568;-68
2023/11/15 13:08:12;;;;;;;;;;;10.20;99.90;;;9.36;100.00;97920.81;5039670;28;1716;-68
2023/11/15 13:10:39;;;;;;;;;;;10.00;99.90;;;9.33;100.00;97930.44;5039230;28;1536;-68
2023/11/15 13:13:11;;;;;;;;;;;9.90;99.90;;;9.34;100.00;97920.00;5037411;28;1934;-68
2023/11/15 13:15:38;;;;;;;;;;;9.70;99.90;;;9.32;100.00;97939.09;5038933;28;1484;-68
2023/11/15 13:18:06;;;;;;;;;;;9.60;99.90;;;9.30;100.00;97938.28;5040925;28;1486;-68